sensor_id;sensor_type;location;lat;lon;timestamp;P1;durP1;ratioP1;P2;durP2;ratioP2
71856;SDS011;63344;46.980;28.882;2023-06-14T00:00:40;12.32;;;8.18;;
71856;SDS011;63344;46.980;28.882;2023-06-14T00:03:39;14.45;;;7.65;;
71856;SDS011;63344;46.980;28.882;2023-06-14T00:06:24;13.82;;;8.75;;
71856;SDS011;63344;46.980;28.882;2023-06-14T00:09:09;14.00;;;8.38;;
71856;SDS011;63344;46.980;28.882;2023-06-14T00:11:57;12.30;;;8.52;;
71856;SDS011;63344;46.980;28.882;2023-06-14T00:14:57;14.27;;;9.25;;
71856;SDS011;63344;46.980;28.882;2023-06-14T00:18:03;11.10;;;7.47;;
71856;SDS011;63344;46.980;28.882;2023-06-14T00:21:10;14.93;;;9.13;;
71856;SDS011;63344;46.980;28.882;2023-06-14T00:23:48;16.20;;;8.73;;
71856;SDS011;63344;46.980;28.882;2023-06-14T00:26:24;13.60;;;8.60;;
71856;SDS011;63344;46.980;28.882;2023-06-14T00:29:10;13.20;;;8.57;;
71856;SDS011;63344;46.980;28.882;2023-06-14T00:31:56;13.90;;;8.98;;
71856;SDS011;63344;46.980;28.882;2023-06-14T00:34:44;14.15;;;9.02;;
71856;SDS011;63344;46.980;28.882;2023-06-14T00:37:31;13.23;;;9.13;;
71856;SDS011;63344;46.980;28.882;2023-06-14T00:48:24;14.73;;;9.27;;
71856;SDS011;63344;46.980;28.882;2023-06-14T00:51:18;14.27;;;9.40;;
71856;SDS011;63344;46.980;28.882;2023-06-14T00:54:34;18.25;;;9.25;;
71856;SDS011;63344;46.980;28.882;2023-06-14T00:57:17;13.25;;;9.27;;
71856;SDS011;63344;46.980;28.882;2023-06-14T01:00:24;14.52;;;9.18;;
71856;SDS011;63344;46.980;28.882;2023-06-14T01:03:00;16.13;;;9.80;;
71856;SDS011;63344;46.980;28.882;2023-06-14T01:09:26;15.27;;;10.40;;
71856;SDS011;63344;46.980;28.882;2023-06-14T01:12:21;14.65;;;9.35;;
71856;SDS011;63344;46.980;28.882;2023-06-14T01:18:10;16.27;;;9.30;;
71856;SDS011;63344;46.980;28.882;2023-06-14T01:20:50;19.98;;;8.15;;
71856;SDS011;63344;46.980;28.882;2023-06-14T01:23:52;15.13;;;8.77;;
71856;SDS011;63344;46.980;28.882;2023-06-14T01:26:27;15.00;;;9.00;;
71856;SDS011;63344;46.980;28.882;2023-06-14T01:29:43;14.38;;;9.05;;
71856;SDS011;63344;46.980;28.882;2023-06-14T01:32:34;16.42;;;9.00;;
71856;SDS011;63344;46.980;28.882;2023-06-14T01:35:19;16.90;;;9.50;;
71856;SDS011;63344;46.980;28.882;2023-06-14T01:37:58;18.40;;;9.73;;
71856;SDS011;63344;46.980;28.882;2023-06-14T01:40:34;17.92;;;10.48;;
71856;SDS011;63344;46.980;28.882;2023-06-14T01:43:06;17.10;;;10.43;;
71856;SDS011;63344;46.980;28.882;2023-06-14T01:46:05;17.65;;;10.30;;
71856;SDS011;63344;46.980;28.882;2023-06-14T01:49:02;17.30;;;10.13;;
71856;SDS011;63344;46.980;28.882;2023-06-14T01:51:53;16.02;;;8.68;;
71856;SDS011;63344;46.980;28.882;2023-06-14T01:54:37;18.75;;;10.68;;
71856;SDS011;63344;46.980;28.882;2023-06-14T01:57:17;18.65;;;8.60;;
71856;SDS011;63344;46.980;28.882;2023-06-14T02:00:07;14.10;;;8.70;;
71856;SDS011;63344;46.980;28.882;2023-06-14T02:02:44;22.70;;;11.05;;
71856;SDS011;63344;46.980;28.882;2023-06-14T02:05:25;20.38;;;11.80;;
71856;SDS011;63344;46.980;28.882;2023-06-14T02:10:59;21.42;;;11.25;;
71856;SDS011;63344;46.980;28.882;2023-06-14T02:13:43;23.15;;;11.95;;
71856;SDS011;63344;46.980;28.882;2023-06-14T02:16:32;21.00;;;11.68;;
71856;SDS011;63344;46.980;28.882;2023-06-14T02:19:07;15.95;;;8.43;;
71856;SDS011;63344;46.980;28.882;2023-06-14T02:21:56;19.35;;;10.45;;
71856;SDS011;63344;46.980;28.882;2023-06-14T02:24:44;22.38;;;12.13;;
71856;SDS011;63344;46.980;28.882;2023-06-14T02:27:29;17.98;;;10.77;;
71856;SDS011;63344;46.980;28.882;2023-06-14T02:30:14;24.45;;;12.38;;
71856;SDS011;63344;46.980;28.882;2023-06-14T02:33:13;21.25;;;12.30;;
71856;SDS011;63344;46.980;28.882;2023-06-14T02:36:25;25.83;;;12.70;;
71856;SDS011;63344;46.980;28.882;2023-06-14T02:39:09;27.35;;;13.13;;
71856;SDS011;63344;46.980;28.882;2023-06-14T02:41:55;27.27;;;13.50;;
71856;SDS011;63344;46.980;28.882;2023-06-14T02:44:39;25.33;;;13.45;;
71856;SDS011;63344;46.980;28.882;2023-06-14T02:47:26;22.35;;;11.20;;
71856;SDS011;63344;46.980;28.882;2023-06-14T02:50:08;19.70;;;10.40;;
71856;SDS011;63344;46.980;28.882;2023-06-14T02:52:51;15.35;;;7.97;;
71856;SDS011;63344;46.980;28.882;2023-06-14T03:03:00;19.33;;;8.90;;
71856;SDS011;63344;46.980;28.882;2023-06-14T03:05:33;23.80;;;12.30;;
71856;SDS011;63344;46.980;28.882;2023-06-14T03:08:45;18.80;;;9.63;;
71856;SDS011;63344;46.980;28.882;2023-06-14T03:11:44;20.52;;;10.15;;
71856;SDS011;63344;46.980;28.882;2023-06-14T03:14:58;29.02;;;11.43;;
71856;SDS011;63344;46.980;28.882;2023-06-14T03:17:54;29.08;;;13.75;;
71856;SDS011;63344;46.980;28.882;2023-06-14T03:20:47;22.70;;;10.02;;
71856;SDS011;63344;46.980;28.882;2023-06-14T03:23:30;27.92;;;12.77;;
71856;SDS011;63344;46.980;28.882;2023-06-14T03:26:10;28.15;;;13.73;;
71856;SDS011;63344;46.980;28.882;2023-06-14T03:36:33;27.00;;;13.23;;
71856;SDS011;63344;46.980;28.882;2023-06-14T03:39:17;24.40;;;12.80;;
71856;SDS011;63344;46.980;28.882;2023-06-14T03:42:45;26.38;;;13.45;;
71856;SDS011;63344;46.980;28.882;2023-06-14T03:45:17;31.77;;;14.48;;
71856;SDS011;63344;46.980;28.882;2023-06-14T03:48:04;29.38;;;12.57;;
71856;SDS011;63344;46.980;28.882;2023-06-14T03:50:41;30.95;;;15.50;;
71856;SDS011;63344;46.980;28.882;2023-06-14T03:53:38;29.92;;;15.10;;
71856;SDS011;63344;46.980;28.882;2023-06-14T04:00:05;23.90;;;12.00;;
71856;SDS011;63344;46.980;28.882;2023-06-14T04:15:51;31.55;;;16.48;;
71856;SDS011;63344;46.980;28.882;2023-06-14T04:19:26;29.63;;;14.15;;
71856;SDS011;63344;46.980;28.882;2023-06-14T04:39:42;32.83;;;14.63;;
71856;SDS011;63344;46.980;28.882;2023-06-14T04:50:54;32.70;;;14.15;;
71856;SDS011;63344;46.980;28.882;2023-06-14T04:55:05;40.75;;;18.30;;
71856;SDS011;63344;46.980;28.882;2023-06-14T04:59:23;29.63;;;14.15;;
71856;SDS011;63344;46.980;28.882;2023-06-14T05:58:25;29.95;;;16.88;;
71856;SDS011;63344;46.980;28.882;2023-06-14T06:48:45;31.38;;;16.70;;
71856;SDS011;63344;46.980;28.882;2023-06-14T07:15:38;27.17;;;12.68;;
71856;SDS011;63344;46.980;28.882;2023-06-14T07:18:52;31.70;;;17.17;;
71856;SDS011;63344;46.980;28.882;2023-06-14T07:31:13;24.48;;;13.30;;
71856;SDS011;63344;46.980;28.882;2023-06-14T07:34:54;22.83;;;12.75;;
71856;SDS011;63344;46.980;28.882;2023-06-14T07:38:05;18.90;;;10.25;;
71856;SDS011;63344;46.980;28.882;2023-06-14T11:35:24;8.05;;;6.20;;
71856;SDS011;63344;46.980;28.882;2023-06-14T13:16:38;7.28;;;4.57;;
71856;SDS011;63344;46.980;28.882;2023-06-14T13:37:55;7.10;;;4.30;;
71856;SDS011;63344;46.980;28.882;2023-06-14T13:41:17;7.00;;;4.40;;
71856;SDS011;63344;46.980;28.882;2023-06-14T14:23:17;6.82;;;5.28;;
71856;SDS011;63344;46.980;28.882;2023-06-14T15:14:15;7.47;;;4.32;;
71856;SDS011;63344;46.980;28.882;2023-06-14T16:32:23;9.50;;;4.10;;
71856;SDS011;63344;46.980;28.882;2023-06-14T18:00:30;8.18;;;5.28;;
71856;SDS011;63344;46.980;28.882;2023-06-14T18:43:22;17.70;;;9.60;;
71856;SDS011;63344;46.980;28.882;2023-06-14T18:51:05;16.45;;;8.90;;
71856;SDS011;63344;46.980;28.882;2023-06-14T18:54:38;16.38;;;8.05;;
71856;SDS011;63344;46.980;28.882;2023-06-14T19:02:26;16.63;;;7.75;;
71856;SDS011;63344;46.980;28.882;2023-06-14T19:28:08;13.32;;;6.68;;
71856;SDS011;63344;46.980;28.882;2023-06-14T19:31:40;12.07;;;6.53;;
71856;SDS011;63344;46.980;28.882;2023-06-14T19:42:59;17.05;;;7.78;;
71856;SDS011;63344;46.980;28.882;2023-06-14T20:04:29;14.73;;;7.70;;
71856;SDS011;63344;46.980;28.882;2023-06-14T20:14:53;12.73;;;7.15;;
71856;SDS011;63344;46.980;28.882;2023-06-14T20:21:29;13.70;;;7.82;;
71856;SDS011;63344;46.980;28.882;2023-06-14T20:24:35;13.55;;;8.13;;
71856;SDS011;63344;46.980;28.882;2023-06-14T20:34:25;12.93;;;7.57;;
71856;SDS011;63344;46.980;28.882;2023-06-14T20:37:20;17.02;;;7.57;;
71856;SDS011;63344;46.980;28.882;2023-06-14T20:40:41;14.63;;;7.75;;
71856;SDS011;63344;46.980;28.882;2023-06-14T20:43:19;13.23;;;8.45;;
71856;SDS011;63344;46.980;28.882;2023-06-14T20:46:27;12.02;;;8.18;;
71856;SDS011;63344;46.980;28.882;2023-06-14T20:49:33;12.95;;;7.13;;
71856;SDS011;63344;46.980;28.882;2023-06-14T20:53:06;13.55;;;7.65;;
71856;SDS011;63344;46.980;28.882;2023-06-14T20:56:17;18.23;;;8.68;;
71856;SDS011;63344;46.980;28.882;2023-06-14T20:58:55;14.80;;;8.05;;
71856;SDS011;63344;46.980;28.882;2023-06-14T21:01:42;11.55;;;7.25;;
71856;SDS011;63344;46.980;28.882;2023-06-14T21:04:36;11.57;;;7.20;;
71856;SDS011;63344;46.980;28.882;2023-06-14T21:07:17;12.30;;;7.75;;
71856;SDS011;63344;46.980;28.882;2023-06-14T21:10:22;14.35;;;8.13;;
71856;SDS011;63344;46.980;28.882;2023-06-14T21:16:48;14.15;;;7.45;;
71856;SDS011;63344;46.980;28.882;2023-06-14T21:19:35;14.15;;;7.43;;
71856;SDS011;63344;46.980;28.882;2023-06-14T21:22:49;10.73;;;7.13;;
71856;SDS011;63344;46.980;28.882;2023-06-14T21:25:44;12.77;;;7.22;;
71856;SDS011;63344;46.980;28.882;2023-06-14T21:28:47;13.10;;;7.80;;
71856;SDS011;63344;46.980;28.882;2023-06-14T21:31:33;16.70;;;7.93;;
71856;SDS011;63344;46.980;28.882;2023-06-14T21:34:35;12.38;;;7.97;;
71856;SDS011;63344;46.980;28.882;2023-06-14T21:37:43;16.17;;;7.45;;
71856;SDS011;63344;46.980;28.882;2023-06-14T21:40:48;12.55;;;6.97;;
71856;SDS011;63344;46.980;28.882;2023-06-14T21:43:36;12.02;;;7.43;;
71856;SDS011;63344;46.980;28.882;2023-06-14T21:49:44;13.85;;;8.23;;
71856;SDS011;63344;46.980;28.882;2023-06-14T21:52:39;14.88;;;7.40;;
71856;SDS011;63344;46.980;28.882;2023-06-14T21:55:41;17.20;;;9.82;;
71856;SDS011;63344;46.980;28.882;2023-06-14T21:58:54;22.58;;;12.15;;
71856;SDS011;63344;46.980;28.882;2023-06-14T22:01:29;20.60;;;11.18;;
71856;SDS011;63344;46.980;28.882;2023-06-14T22:04:37;12.23;;;7.38;;
71856;SDS011;63344;46.980;28.882;2023-06-14T22:07:19;11.98;;;8.13;;
71856;SDS011;63344;46.980;28.882;2023-06-14T22:13:07;14.30;;;8.18;;
71856;SDS011;63344;46.980;28.882;2023-06-14T22:15:49;16.15;;;9.23;;
71856;SDS011;63344;46.980;28.882;2023-06-14T22:18:44;17.63;;;10.85;;
71856;SDS011;63344;46.980;28.882;2023-06-14T22:21:37;12.63;;;8.68;;
71856;SDS011;63344;46.980;28.882;2023-06-14T22:24:18;15.57;;;8.32;;
71856;SDS011;63344;46.980;28.882;2023-06-14T22:26:53;13.65;;;8.65;;
71856;SDS011;63344;46.980;28.882;2023-06-14T22:29:33;11.25;;;7.80;;
71856;SDS011;63344;46.980;28.882;2023-06-14T22:32:33;12.85;;;8.23;;
71856;SDS011;63344;46.980;28.882;2023-06-14T22:35:21;12.02;;;8.30;;
71856;SDS011;63344;46.980;28.882;2023-06-14T22:37:59;13.55;;;8.35;;
71856;SDS011;63344;46.980;28.882;2023-06-14T22:40:35;13.27;;;7.78;;
71856;SDS011;63344;46.980;28.882;2023-06-14T22:43:26;11.75;;;7.97;;
71856;SDS011;63344;46.980;28.882;2023-06-14T22:45:58;12.90;;;8.30;;
71856;SDS011;63344;46.980;28.882;2023-06-14T22:49:12;12.27;;;7.72;;
71856;SDS011;63344;46.980;28.882;2023-06-14T22:51:54;17.20;;;8.10;;
71856;SDS011;63344;46.980;28.882;2023-06-14T22:54:59;17.33;;;8.60;;
71856;SDS011;63344;46.980;28.882;2023-06-14T22:58:06;13.45;;;8.75;;
71856;SDS011;63344;46.980;28.882;2023-06-14T23:00:38;12.40;;;8.32;;
71856;SDS011;63344;46.980;28.882;2023-06-14T23:03:31;13.30;;;8.57;;
71856;SDS011;63344;46.980;28.882;2023-06-14T23:06:16;12.23;;;8.20;;
71856;SDS011;63344;46.980;28.882;2023-06-14T23:09:11;13.15;;;8.57;;
71856;SDS011;63344;46.980;28.882;2023-06-14T23:12:16;13.05;;;7.70;;
71856;SDS011;63344;46.980;28.882;2023-06-14T23:15:15;15.07;;;8.50;;
71856;SDS011;63344;46.980;28.882;2023-06-14T23:18:13;16.85;;;8.73;;
71856;SDS011;63344;46.980;28.882;2023-06-14T23:20:59;11.25;;;8.32;;
71856;SDS011;63344;46.980;28.882;2023-06-14T23:23:39;16.63;;;8.02;;
71856;SDS011;63344;46.980;28.882;2023-06-14T23:30:15;15.43;;;11.45;;
71856;SDS011;63344;46.980;28.882;2023-06-14T23:33:09;16.08;;;9.60;;
71856;SDS011;63344;46.980;28.882;2023-06-14T23:36:08;18.23;;;11.90;;
71856;SDS011;63344;46.980;28.882;2023-06-14T23:39:17;22.45;;;12.73;;
71856;SDS011;63344;46.980;28.882;2023-06-14T23:41:56;18.35;;;12.63;;
71856;SDS011;63344;46.980;28.882;2023-06-14T23:44:48;22.73;;;14.63;;
71856;SDS011;63344;46.980;28.882;2023-06-14T23:47:20;17.13;;;10.80;;
71856;SDS011;63344;46.980;28.882;2023-06-14T23:50:06;15.43;;;9.13;;
71856;SDS011;63344;46.980;28.882;2023-06-14T23:53:22;21.83;;;13.25;;
71856;SDS011;63344;46.980;28.882;2023-06-14T23:56:36;21.15;;;13.43;;
71856;SDS011;63344;46.980;28.882;2023-06-14T23:59:17;17.60;;;11.68;;
